Time;durP1;ratioP1;P1;durP2;ratioP2;P2;SDS_P1;SDS_P2;PMS_P1;PMS_P2;Temp;Humidity;BMP_temperature;BMP_pressure;BME280_temperature;BME280_humidity;BME280_pressure;Samples;Min_cycle;Max_cycle;Signal;HPM_P1;HPM_P2
2023/08/24 00:00:26;;;;;;;3.17;2.17;;;23.20;77.70;;;25.91;50.02;101780.41;5093031;28;20208;-67
2023/08/24 00:02:53;;;;;;;4.33;2.20;;;23.20;78.00;;;25.90;49.75;101778.75;5093580;28;20267;-67
2023/08/24 00:05:20;;;;;;;4.27;2.70;;;23.10;78.30;;;25.92;50.27;101776.63;5093423;28;20196;-65
2023/08/24 00:07:49;;;;;;;3.87;2.33;;;23.20;78.60;;;25.95;49.79;101776.13;5096611;28;20275;-65
2023/08/24 00:10:17;;;;;;;2.97;2.53;;;23.20;78.60;;;25.97;49.84;101777.50;5113250;28;20307;-66
2023/08/24 00:12:44;;;;;;;5.90;2.13;;;23.20;78.50;;;25.99;50.34;101778.06;5113782;28;20190;-65
2023/08/24 00:15:11;;;;;;;3.20;2.60;;;23.20;78.40;;;26.01;49.50;101775.94;5113751;28;20184;-66
2023/08/24 00:17:38;;;;;;;4.27;2.27;;;23.30;78.30;;;26.04;49.70;101774.63;5112537;28;20192;-66
2023/08/24 00:20:10;;;;;;;2.50;2.30;;;23.30;78.30;;;26.07;49.52;101774.13;5092796;28;20231;-66
2023/08/24 00:22:39;;;;;;;5.10;2.57;;;23.30;78.30;;;26.07;49.44;101774.13;5093555;28;20222;-66
2023/08/24 00:25:09;;;;;;;5.37;2.17;;;23.30;78.10;;;26.07;49.63;101776.81;5093232;28;20212;-66
2023/08/24 00:27:36;;;;;;;4.53;2.87;;;23.30;78.00;;;26.07;49.89;101771.44;5093412;28;20196;-66
2023/08/24 00:30:06;;;;;;;3.77;2.13;;;23.40;78.10;;;26.08;49.73;101776.56;5122228;27;20223;-67
2023/08/24 00:32:35;;;;;;;3.50;2.50;;;23.30;78.00;;;26.08;49.81;101775.75;5134253;27;20191;-67
2023/08/24 00:35:02;;;;;;;4.57;2.33;;;23.30;77.90;;;26.07;49.43;101774.13;5114063;27;20260;-67
2023/08/24 00:37:30;;;;;;;3.63;2.27;;;23.30;78.00;;;26.04;50.08;101769.22;5113554;28;20556;-67
2023/08/24 00:39:59;;;;;;;6.80;2.40;;;23.30;78.00;;;26.01;50.12;101770.53;5112767;28;20216;-67
2023/08/24 00:42:28;;;;;;;3.73;2.50;;;23.30;78.10;;;26.01;49.70;101775.94;5112366;28;20200;-67
2023/08/24 00:44:55;;;;;;;4.40;2.13;;;23.30;78.30;;;25.99;50.31;101771.84;5113663;28;20214;-67
2023/08/24 00:47:22;;;;;;;5.27;2.20;;;23.20;78.20;;;25.97;49.98;101769.41;5117549;28;20188;-67
2023/08/24 00:49:49;;;;;;;4.50;2.37;;;23.20;78.20;;;25.96;49.55;101766.97;5098000;28;20217;-67
2023/08/24 00:52:18;;;;;;;2.30;2.10;;;23.20;78.20;;;25.96;49.90;101770.47;5107377;28;20227;-67
2023/08/24 00:54:45;;;;;;;3.63;2.23;;;23.20;78.40;;;25.94;50.31;101774.50;5117260;28;20223;-67
2023/08/24 00:57:13;;;;;;;4.47;2.47;;;23.20;78.50;;;25.93;49.83;101768.28;5111668;28;20204;-67
2023/08/24 00:59:41;;;;;;;3.90;2.50;;;23.20;78.60;;;25.90;49.84;101774.19;5113686;28;20628;-67
2023/08/24 01:02:09;;;;;;;3.40;2.33;;;23.20;78.70;;;25.91;50.13;101767.72;5117254;28;20188;-68
2023/08/24 01:04:36;;;;;;;3.87;2.17;;;23.20;78.70;;;25.91;50.42;101775.00;5117241;28;20556;-69
2023/08/24 01:07:04;;;;;;;2.93;2.60;;;23.20;78.80;;;25.90;50.40;101773.38;5117197;28;20253;-66
2023/08/24 01:09:31;;;;;;;3.90;2.23;;;23.10;78.70;;;25.87;49.85;101769.28;5099423;28;20250;-67
2023/08/24 01:12:17;;;;;;;3.63;2.50;;;23.10;78.80;;;25.84;49.79;101772.47;5094912;28;20196;-67
2023/08/24 01:15:00;;;;;;;5.43;2.57;;;23.10;78.70;;;25.81;49.92;101767.59;5096598;28;20199;-67
2023/08/24 01:17:30;;;;;;;3.07;2.30;;;23.10;78.80;;;25.82;49.99;101776.47;5096533;28;20709;-68
2023/08/24 01:19:59;;;;;;;2.83;2.20;;;23.10;78.70;;;25.80;50.74;101768.66;5115217;28;20207;-67
2023/08/24 01:22:37;;;;;;;5.13;2.30;;;23.10;78.80;;;25.77;50.36;101774.53;5116922;28;20257;-67
2023/08/24 01:25:13;;;;;;;3.17;2.40;;;23.10;78.70;;;25.76;50.45;101772.09;5117269;28;20200;-67
2023/08/24 01:27:43;;;;;;;4.80;2.47;;;23.00;78.50;;;25.74;50.08;101768.84;5116446;28;20188;-67
2023/08/24 01:30:11;;;;;;;4.03;2.60;;;23.00;78.50;;;25.68;50.47;101761.72;5111175;27;20215;-67
2023/08/24 01:32:38;;;;;;;4.03;2.60;;;23.00;78.60;;;25.61;50.02;101758.41;5116721;28;20253;-67
2023/08/24 01:35:09;;;;;;;2.70;2.30;;;22.90;78.90;;;25.54;50.98;101762.09;5136855;27;20689;-65
2023/08/24 01:37:38;;;;;;;3.10;2.07;;;22.80;79.40;;;25.53;50.81;101762.34;5136790;27;20495;-66
2023/08/24 01:40:09;;;;;;;5.17;2.57;;;22.80;79.70;;;25.54;50.55;101766.66;5096210;27;20684;-67
2023/08/24 01:42:48;;;;;;;4.37;2.00;;;22.70;79.80;;;25.55;50.57;101766.41;5094935;28;20239;-65
2023/08/24 01:45:18;;;;;;;2.47;2.10;;;22.80;80.00;;;25.62;50.79;101768.13;5108163;28;20275;-66
2023/08/24 01:47:48;;;;;;;2.90;2.10;;;22.80;80.00;;;25.65;51.08;101759.56;5112723;28;20206;-65
2023/08/24 01:50:16;;;;;;;3.13;2.07;;;22.80;80.10;;;25.69;50.62;101763.38;5095622;28;20220;-66
2023/08/24 01:52:44;;;;;;;4.13;2.53;;;22.80;79.90;;;25.70;50.21;101756.94;5095560;28;20223;-66
2023/08/24 01:55:11;;;;;;;4.07;2.97;;;22.80;79.70;;;25.69;50.66;101757.97;5095718;28;20193;-67
2023/08/24 01:57:38;;;;;;;4.90;2.63;;;22.80;79.50;;;25.66;50.44;101758.47;5107627;28;20286;-67
2023/08/24 02:00:09;;;;;;;3.20;2.60;;;22.90;79.50;;;25.64;50.99;101753.34;5113958;28;20223;-66
2023/08/24 02:02:36;;;;;;;3.87;2.20;;;22.90;79.60;;;25.65;50.75;101754.16;5114993;28;20275;-67
2023/08/24 02:05:04;;;;;;;2.70;2.23;;;22.90;79.60;;;25.65;50.90;101746.06;5116233;28;20195;-67
2023/08/24 02:07:31;;;;;;;2.80;2.20;;;22.80;79.50;;;25.65;50.63;101754.16;5115935;28;20271;-66
2023/08/24 02:09:58;;;;;;;3.83;2.50;;;22.90;79.60;;;25.62;50.79;101744.69;5096865;28;20232;-67
2023/08/24 02:12:25;;;;;;;2.90;2.60;;;22.90;79.10;;;25.55;50.39;101746.75;5095649;28;20224;-67
2023/08/24 02:14:52;;;;;;;3.43;2.50;;;22.80;78.70;;;25.50;50.10;101738.56;5094666;28;20199;-67
2023/08/24 02:17:21;;;;;;;3.50;2.27;;;22.80;79.80;;;25.47;50.84;101737.19;5095747;28;20275;-66
2023/08/24 02:19:48;;;;;;;5.83;2.30;;;22.70;79.20;;;25.44;50.81;101743.06;5111841;28;20229;-66
2023/08/24 02:22:15;;;;;;;2.83;2.57;;;22.70;79.30;;;25.45;50.44;101744.72;5115789;28;20648;-67
2023/08/24 02:24:42;;;;;;;3.97;2.83;;;22.70;79.60;;;25.44;50.29;101743.06;5115787;28;20199;-67
2023/08/24 02:27:09;;;;;;;8.27;3.40;;;22.70;79.30;;;25.41;50.85;101738.13;5115112;28;20648;-67
2023/08/24 02:29:37;;;;;;;4.10;2.93;;;22.70;79.30;;;25.39;50.44;101734.88;5118701;27;20215;-68
2023/08/24 02:32:04;;;;;;;2.60;2.13;;;22.60;79.20;;;25.38;50.43;101746.75;5135588;27;20187;-67
2023/08/24 02:34:41;;;;;;;3.63;2.73;;;22.60;79.40;;;25.34;50.79;101736.69;5120283;27;20188;-67
2023/08/24 02:37:08;;;;;;;3.50;2.60;;;22.60;79.30;;;25.34;50.36;101732.09;5115231;28;20191;-67
2023/08/24 02:39:35;;;;;;;2.53;2.33;;;22.60;79.60;;;25.33;50.46;101730.50;5114288;28;20257;-67
2023/08/24 02:42:03;;;;;;;3.20;2.50;;;22.60;79.80;;;25.33;50.48;101730.50;5115094;28;20195;-67
2023/08/24 02:44:31;;;;;;;2.90;2.70;;;22.60;79.80;;;25.32;51.10;101728.84;5109099;28;20571;-66
2023/08/24 02:46:58;;;;;;;3.67;2.70;;;22.50;79.80;;;25.30;50.82;101724.75;5094702;28;20214;-68
2023/08/24 02:49:25;;;;;;;4.10;3.13;;;22.50;79.70;;;25.26;50.57;101724.47;5094783;28;20263;-66
2023/08/24 02:51:53;;;;;;;7.50;3.27;;;22.50;79.80;;;25.23;50.63;101724.94;5095007;28;20665;-66
2023/08/24 02:54:20;;;;;;;3.70;3.00;;;22.50;80.00;;;25.18;50.78;101727.56;5094681;28;20275;-67
2023/08/24 02:56:47;;;;;;;6.17;3.43;;;22.40;80.00;;;25.14;51.04;101710.25;5100629;28;20562;-66
2023/08/24 02:59:14;;;;;;;4.33;3.10;;;22.40;80.20;;;25.11;51.08;101713.44;5113990;28;20214;-67
2023/08/24 03:01:41;;;;;;;5.83;3.67;;;22.30;80.40;;;25.07;51.61;101709.59;5115081;28;20210;-68
2023/08/24 03:04:08;;;;;;;5.13;3.37;;;22.30;80.60;;;25.05;51.75;101706.34;5114551;27;20361;-69
2023/08/24 03:06:36;;;;;;;7.17;3.80;;;22.30;80.80;;;25.03;51.99;101697.66;5114488;27;20194;-67
2023/08/24 03:09:04;;;;;;;4.20;3.40;;;22.30;80.90;;;25.03;51.47;101689.59;5107636;28;20193;-68
2023/08/24 03:11:31;;;;;;;3.30;3.00;;;22.20;81.00;;;25.05;51.92;101700.13;5103574;28;20224;-67
2023/08/24 03:13:58;;;;;;;4.77;3.50;;;22.30;81.10;;;25.07;51.36;101695.31;5114256;28;20537;-67
2023/08/24 03:16:25;;;;;;;6.00;4.57;;;22.20;81.00;;;25.09;51.23;101694.00;5114549;28;20191;-67
2023/08/24 03:18:53;;;;;;;4.17;3.50;;;22.30;81.10;;;25.12;51.62;101690.81;5113004;28;20194;-66
2023/08/24 03:21:20;;;;;;;5.50;3.87;;;22.30;81.10;;;25.15;51.21;101690.31;5114100;28;20212;-67
2023/08/24 03:23:47;;;;;;;4.83;4.10;;;22.30;81.10;;;25.18;51.14;101695.22;5114472;28;20274;-67
2023/08/24 03:26:16;;;;;;;5.00;3.73;;;22.30;80.70;;;25.15;51.26;101687.63;5114752;28;20234;-67
2023/08/24 03:28:43;;;;;;;3.70;2.90;;;22.30;80.90;;;25.15;51.85;101684.91;5113207;28;20246;-67
2023/08/24 03:31:10;;;;;;;4.63;4.10;;;22.30;81.20;;;25.16;51.37;101686.56;5131436;27;20239;-67
2023/08/24 03:33:37;;;;;;;5.47;4.17;;;22.30;81.20;;;25.19;51.64;101679.84;5126596;27;20215;-67
2023/08/24 03:36:05;;;;;;;5.37;3.90;;;22.30;81.10;;;25.19;51.44;101680.69;5114093;28;20194;-67
2023/08/24 03:38:32;;;;;;;5.33;4.20;;;22.30;81.10;;;25.19;51.17;101680.69;5113528;28;20278;-67
2023/08/24 03:41:02;;;;;;;5.07;3.53;;;22.30;81.10;;;25.21;51.54;101693.91;5114114;28;20311;-67
2023/08/24 03:43:34;;;;;;;4.80;4.30;;;22.30;81.80;;;25.21;51.26;101704.69;5113108;28;20210;-67
2023/08/24 03:46:01;;;;;;;5.30;4.50;;;22.30;81.00;;;25.17;50.89;101715.16;5113975;28;20626;-67
2023/08/24 03:48:28;;;;;;;6.93;4.27;;;22.30;80.60;;;25.12;51.75;101707.00;5113346;28;20195;-67
2023/08/24 03:50:56;;;;;;;3.77;3.33;;;22.30;81.10;;;25.10;51.65;101709.13;5093519;28;20224;-67
2023/08/24 03:53:23;;;;;;;5.53;4.00;;;22.20;81.30;;;25.09;51.57;101706.66;5109340;28;20652;-67
2023/08/24 03:55:51;;;;;;;4.80;3.43;;;22.20;81.20;;;25.07;51.31;101715.00;5093515;28;20560;-68
2023/08/24 03:58:19;;;;;;;6.60;3.77;;;22.20;81.50;;;25.09;51.91;101720.13;5112638;28;20199;-68
2023/08/24 04:00:47;;;;;;;4.50;3.60;;;22.20;81.40;;;25.09;51.71;101723.66;5113555;28;20245;-67
2023/08/24 04:03:14;;;;;;;3.67;3.37;;;22.30;81.50;;;25.08;51.95;101713.91;5113931;28;20191;-68
2023/08/24 04:05:42;;;;;;;5.10;3.07;;;22.20;81.20;;;25.07;51.34;101712.31;5113830;28;20184;-67
2023/08/24 04:08:09;;;;;;;4.97;3.00;;;22.20;81.30;;;25.10;51.36;101714.50;5113816;28;20191;-68
2023/08/24 04:10:37;;;;;;;5.37;3.60;;;22.20;81.50;;;25.11;51.88;101715.31;5093954;28;20243;-66
2023/08/24 04:13:04;;;;;;;4.37;3.67;;;22.20;81.60;;;25.12;51.27;101717.78;5093284;28;20278;-67
2023/08/24 04:15:32;;;;;;;6.13;3.60;;;22.20;81.30;;;25.11;51.43;101716.13;5108738;28;20759;-66
2023/08/24 04:18:00;;;;;;;7.73;3.80;;;22.20;81.40;;;25.10;51.09;101714.50;5113899;28;20192;-66
2023/08/24 04:20:27;;;;;;;6.33;4.13;;;22.20;81.00;;;25.06;51.34;101718.75;5115807;28;20216;-66
2023/08/24 04:22:56;;;;;;;3.63;3.20;;;22.20;80.70;;;24.99;51.84;101715.41;5117722;28;20191;-66
2023/08/24 04:25:23;;;;;;;4.00;3.00;;;22.10;81.00;;;24.92;51.66;101717.44;5117591;28;20259;-67
2023/08/24 04:27:50;;;;;;;3.57;3.10;;;22.10;81.40;;;24.88;52.11;101716.31;5117539;28;20206;-67
2023/08/24 04:30:18;;;;;;;4.63;3.20;;;22.10;81.60;;;24.85;51.84;101711.41;5106615;27;20582;-67
2023/08/24 04:32:45;;;;;;;5.97;3.53;;;22.00;81.80;;;24.84;52.34;101709.78;5137391;27;20187;-66
2023/08/24 04:35:13;;;;;;;5.30;3.70;;;22.00;81.90;;;24.83;51.83;101708.16;5117363;28;20190;-67
2023/08/24 04:37:40;;;;;;;4.27;3.40;;;22.00;81.80;;;24.81;52.29;101719.19;5117331;28;20711;-66
2023/08/24 04:40:09;;;;;;;10.40;3.60;;;22.00;82.30;;;24.83;51.98;101724.31;5116120;28;20294;-67
2023/08/24 04:42:36;;;;;;;4.97;3.03;;;22.00;82.40;;;24.82;52.09;101714.56;5117331;28;20567;-65
2023/08/24 04:45:04;;;;;;;4.20;3.47;;;22.00;82.50;;;24.82;52.65;101711.88;5106921;28;20192;-67
2023/08/24 04:47:31;;;;;;;4.80;2.67;;;22.00;82.60;;;24.83;52.14;101708.16;5096786;28;20216;-67
2023/08/24 04:49:58;;;;;;;4.37;3.23;;;22.00;82.60;;;24.84;52.36;101710.59;5106270;28;20680;-67
2023/08/24 04:52:26;;;;;;;5.20;3.00;;;22.00;82.40;;;24.82;52.04;101704.63;5117045;28;20220;-67
2023/08/24 04:54:53;;;;;;;4.93;3.00;;;22.00;82.10;;;24.81;51.92;101704.88;5116779;28;20215;-67
2023/08/24 04:57:20;;;;;;;4.20;2.97;;;22.00;82.40;;;24.80;52.37;101704.06;5116408;28;20605;-67
2023/08/24 04:59:50;;;;;;;3.47;3.17;;;22.00;82.60;;;24.80;52.60;101697.84;5106736;28;20362;-67
2023/08/24 05:02:17;;;;;;;4.13;3.40;;;21.90;82.40;;;24.80;52.00;101705.94;5095922;28;20613;-66
2023/08/24 05:04:44;;;;;;;3.60;3.20;;;21.90;82.40;;;24.78;52.21;101702.66;5096290;28;20200;-66
2023/08/24 05:07:11;;;;;;;4.90;2.80;;;21.90;82.60;;;24.76;52.27;101702.06;5096104;28;20192;-66
2023/08/24 05:09:40;;;;;;;4.40;3.30;;;21.90;82.80;;;24.76;52.23;101702.06;5095542;28;20219;-66
2023/08/24 05:12:07;;;;;;;5.37;3.57;;;21.90;82.70;;;24.75;52.00;101716.59;5094880;28;20303;-65
2023/08/24 05:14:35;;;;;;;5.83;3.37;;;21.90;82.60;;;24.70;52.21;101716.50;5094503;28;20193;-68
2023/08/24 05:17:02;;;;;;;6.87;3.63;;;21.90;82.80;;;24.68;52.29;101718.63;5114918;28;20223;-66
2023/08/24 05:19:29;;;;;;;6.13;3.33;;;21.80;82.70;;;24.66;52.40;101718.06;5114945;28;20210;-67
2023/08/24 05:21:56;;;;;;;3.77;3.47;;;21.80;82.90;;;24.65;53.04;101724.53;5115767;28;20233;-67
2023/08/24 05:24:23;;;;;;;4.13;3.13;;;21.80;83.10;;;24.63;53.02;101722.06;5116541;28;20244;-67
2023/08/24 05:26:51;;;;;;;4.13;3.20;;;21.70;83.10;;;24.63;52.61;101723.91;5113982;28;20582;-68
2023/08/24 05:29:18;;;;;;;4.90;3.73;;;21.70;84.00;;;24.63;52.53;101723.91;5100691;27;20286;-67
2023/08/24 05:31:45;;;;;;;6.40;2.80;;;21.80;83.20;;;24.64;52.50;101726.38;5135121;27;20667;-65
2023/08/24 05:34:12;;;;;;;5.73;3.17;;;21.80;83.50;;;24.69;52.59;101728.34;5122715;27;20244;-66
2023/08/24 05:36:39;;;;;;;4.13;3.00;;;21.80;83.60;;;24.73;52.50;101724.94;5115120;28;20278;-67
2023/08/24 05:39:06;;;;;;;4.50;3.10;;;21.80;83.60;;;24.80;52.52;101722.09;5115667;28;20222;-67
2023/08/24 05:41:34;;;;;;;5.50;2.90;;;21.80;83.50;;;24.85;52.36;101706.84;5114517;28;20212;-67
2023/08/24 05:44:02;;;;;;;6.43;3.77;;;21.90;83.40;;;24.88;51.96;101713.63;5115334;28;20184;-67
2023/08/24 05:46:29;;;;;;;4.37;3.50;;;21.90;82.90;;;24.83;51.92;101702.75;5114979;28;20604;-68
2023/08/24 05:49:02;;;;;;;5.37;3.60;;;21.90;82.50;;;24.77;52.15;101701.84;5113685;28;20608;-66
2023/08/24 05:51:29;;;;;;;5.10;3.50;;;21.90;82.60;;;24.74;52.33;101698.81;5115752;28;20322;-67
2023/08/24 05:53:58;;;;;;;4.70;3.50;;;21.90;82.90;;;24.74;52.93;101709.59;5115633;28;20554;-66
2023/08/24 05:56:25;;;;;;;4.73;3.60;;;21.90;82.80;;;24.72;52.71;101712.50;5105636;28;20592;-65
2023/08/24 05:58:53;;;;;;;6.77;3.83;;;21.90;82.90;;;24.70;52.77;101703.84;5096950;28;20220;-68
2023/08/24 06:01:22;;;;;;;4.60;3.50;;;21.90;83.00;;;24.71;52.84;101702.81;5094302;28;20281;-68
2023/08/24 06:03:49;;;;;;;4.83;3.40;;;21.80;83.10;;;24.74;52.39;101698.81;5093891;28;20235;-67
2023/08/24 06:06:16;;;;;;;5.20;3.57;;;21.90;83.40;;;24.75;52.96;101705.81;5094789;28;20282;-67
2023/08/24 06:08:43;;;;;;;7.53;4.00;;;21.90;83.20;;;24.78;52.86;101703.50;5110889;28;20272;-67
2023/08/24 06:11:10;;;;;;;4.90;3.17;;;21.90;83.00;;;24.79;52.84;101697.03;5117210;27;20212;-67
2023/08/24 06:13:37;;;;;;;6.50;3.03;;;21.90;82.90;;;24.84;52.25;101696.31;5135295;27;20215;-66
2023/08/24 06:16:04;;;;;;;5.60;4.00;;;22.00;82.80;;;24.88;52.01;101697.44;5134985;27;20547;-68
2023/08/24 06:18:33;;;;;;;7.67;3.67;;;22.00;82.80;;;24.94;52.56;101691.06;5119610;27;20204;-66
2023/08/24 06:21:00;;;;;;;7.90;6.37;;;22.10;82.90;;;25.00;51.69;101692.78;5113887;28;20518;-66
2023/08/24 06:23:27;;;;;;;5.47;3.60;;;22.10;82.40;;;24.98;51.67;101684.16;5114829;28;20279;-68
2023/08/24 06:25:54;;;;;;;8.37;3.50;;;22.10;82.20;;;25.03;52.30;101691.50;5114767;28;20191;-66
2023/08/24 06:28:21;;;;;;;4.73;3.30;;;22.20;82.50;;;25.10;52.04;101690.25;5101517;28;20227;-67
2023/08/24 06:30:48;;;;;;;5.07;3.40;;;22.20;82.40;;;25.17;51.94;101690.91;5123972;27;20257;-67
2023/08/24 06:33:17;;;;;;;4.93;4.07;;;22.30;82.40;;;25.18;51.88;101675.53;5130304;27;20245;-68
2023/08/24 06:35:45;;;;;;;4.77;4.13;;;22.30;82.00;;;25.17;51.63;101682.81;5114766;28;20188;-67
2023/08/24 06:38:13;;;;;;;3.87;2.73;;;22.30;82.00;;;25.17;51.62;101676.59;5113851;28;20267;-66
2023/08/24 06:40:40;;;;;;;5.07;4.10;;;22.30;82.00;;;25.19;51.60;101675.28;5114069;28;20215;-67
2023/08/24 06:43:07;;;;;;;8.73;3.67;;;22.30;82.00;;;25.25;52.12;101670.78;5113682;28;20198;-67
2023/08/24 06:45:34;;;;;;;3.90;3.50;;;22.40;82.00;;;25.27;51.31;101666.75;5099644;28;20275;-67
2023/08/24 06:48:02;;;;;;;5.17;3.50;;;22.40;81.90;;;25.32;51.80;101664.13;5103243;28;20192;-67
2023/08/24 06:50:31;;;;;;;18.20;14.63;;;22.50;81.80;;;25.34;51.29;101662.00;5114372;28;20677;-67
2023/08/24 06:52:59;;;;;;;5.10;4.07;;;22.50;81.50;;;25.40;51.40;101661.03;5099962;28;20669;-67
2023/08/24 06:55:27;;;;;;;6.50;4.70;;;22.50;81.30;;;25.47;51.39;101666.25;5094342;28;20252;-67
2023/08/24 06:57:54;;;;;;;4.23;3.73;;;22.60;81.30;;;25.56;51.12;101670.13;5107874;28;20303;-68
2023/08/24 07:00:22;;;;;;;3.97;3.57;;;22.60;81.20;;;25.64;51.09;101671.59;5113826;28;20298;-67
2023/08/24 07:02:52;;;;;;;5.83;2.87;;;22.70;80.90;;;25.73;50.78;101664.69;5114479;28;20274;-67
2023/08/24 07:05:19;;;;;;;5.27;3.43;;;22.80;81.00;;;25.81;50.17;101656.16;5114653;27;20188;-67
2023/08/24 07:07:47;;;;;;;4.40;2.70;;;22.80;80.50;;;25.87;50.42;101655.13;5112540;28;20183;-67
2023/08/24 07:10:16;;;;;;;9.83;3.43;;;22.90;80.40;;;25.92;50.45;101647.09;5102574;28;20216;-68
2023/08/24 07:12:44;;;;;;;7.00;3.43;;;23.00;80.20;;;25.98;50.08;101654.97;5093740;28;20219;-67
2023/08/24 07:15:12;;;;;;;5.20;3.60;;;23.00;80.00;;;26.06;49.41;101648.31;5099593;27;20669;-66
2023/08/24 07:17:40;;;;;;;5.83;3.33;;;23.10;79.80;;;26.14;49.28;101643.31;5096733;28;20344;-67
2023/08/24 07:20:09;;;;;;;4.43;2.90;;;23.10;79.70;;;26.25;49.85;101633.41;5091413;28;20224;-67
2023/08/24 07:22:36;;;;;;;6.23;3.83;;;23.20;79.50;;;26.33;49.55;101632.97;5093312;28;20210;-68
2023/08/24 07:25:05;;;;;;;5.10;3.10;;;23.30;79.20;;;26.44;49.32;101640.06;5097352;28;20275;-67
2023/08/24 07:27:35;;;;;;;4.37;3.50;;;23.40;79.10;;;26.55;48.81;101632.88;5097162;28;20274;-67
2023/08/24 07:30:06;;;;;;;6.73;3.70;;;23.50;78.50;;;26.83;48.08;101627.97;5103436;27;20607;-66
2023/08/24 07:32:52;;;;;;;4.43;3.20;;;23.60;78.70;;;27.50;47.24;101619.16;5113626;27;20222;-69
2023/08/24 07:35:20;;;;;;;8.83;5.97;;;23.80;78.70;;;28.18;46.13;101624.22;5126110;27;20218;-68
2023/08/24 07:37:47;;;;;;;6.70;4.63;;;24.10;78.50;;;28.96;45.11;101624.72;5096570;28;20549;-66
2023/08/24 07:40:15;;;;;;;3.20;2.90;;;24.60;77.60;;;29.68;43.13;101626.09;5096276;28;20219;-67
2023/08/24 07:42:50;;;;;;;8.97;7.63;;;25.00;75.30;;;30.51;41.50;101619.56;5106020;28;20232;-67
2023/08/24 07:45:18;;;;;;;10.20;8.57;;;25.60;74.30;;;31.26;39.48;101615.25;5104846;28;20188;-67
2023/08/24 07:47:45;;;;;;;7.40;5.53;;;26.20;70.80;;;31.90;38.20;101609.22;5093042;28;20242;-67
2023/08/24 07:50:13;;;;;;;3.80;2.53;;;26.80;69.70;;;32.56;36.14;101610.94;5092267;28;20262;-67
2023/08/24 07:52:40;;;;;;;3.20;2.27;;;27.30;65.10;;;33.10;35.35;101610.19;5093696;28;20235;-67
2023/08/24 07:55:09;;;;;;;5.00;3.33;;;27.90;64.10;;;33.65;34.49;101608.22;5091652;28;20231;-66
2023/08/24 07:57:37;;;;;;;4.77;3.00;;;28.40;62.30;;;34.20;33.40;101598.75;5109781;28;20199;-67
2023/08/24 08:00:09;;;;;;;3.77;2.30;;;28.80;61.10;;;34.76;32.80;101608.25;5114173;28;20282;-68
2023/08/24 08:02:37;;;;;;;3.97;2.47;;;29.40;59.30;;;35.37;31.86;101603.47;5113503;28;20594;-66
2023/08/24 08:05:07;;;;;;;4.78;2.55;;;29.90;58.50;;;35.84;29.22;101600.97;5112987;28;20203;-67
2023/08/24 08:07:35;;;;;;;6.75;2.42;;;30.30;54.20;;;35.98;28.31;101599.69;5113519;28;20183;-67
2023/08/24 08:10:04;;;;;;;3.33;2.80;;;30.60;51.20;;;36.20;29.04;101597.88;5093623;28;20216;-67
2023/08/24 08:12:32;;;;;;;6.67;3.10;;;31.00;52.60;;;36.59;27.75;101589.41;5104354;28;20287;-68
2023/08/24 08:14:59;;;;;;;4.10;2.70;;;31.10;49.50;;;36.66;27.39;101595.19;5099603;28;20640;-67
2023/08/24 08:17:30;;;;;;;3.33;2.40;;;31.30;48.40;;;36.51;27.54;101582.84;5113151;28;20184;-66
2023/08/24 08:19:57;;;;;;;6.57;2.72;;;31.40;47.40;;;36.33;27.55;101581.22;5113026;28;20212;-68
2023/08/24 08:22:25;;;;;;;4.40;2.50;;;31.40;48.10;;;36.51;28.44;101576.53;5113130;28;20215;-67
2023/08/24 08:24:56;;;;;;;5.60;2.58;;;31.60;48.80;;;37.03;27.42;101571.63;5110801;28;20556;-68
2023/08/24 08:27:23;;;;;;;7.80;5.60;;;31.70;48.30;;;37.53;26.89;101590.88;5110223;28;20275;-67
2023/08/24 08:29:50;;;;;;;5.47;4.95;;;32.00;47.90;;;37.98;26.17;101591.81;5118425;28;20250;-67
2023/08/24 08:32:18;;;;;;;8.95;4.05;;;32.30;46.80;;;38.31;25.63;101589.88;5126613;27;20250;-68
2023/08/24 08:34:46;;;;;;;3.17;2.80;;;32.60;46.00;;;38.65;25.12;101598.88;5128959;28;20219;-67
2023/08/24 08:37:13;;;;;;;3.25;2.40;;;32.80;44.80;;;38.80;25.27;101596.28;5112892;28;20222;-66
2023/08/24 08:39:40;;;;;;;5.47;3.05;;;33.10;44.90;;;39.04;24.78;101584.44;5112424;28;20208;-67
2023/08/24 08:42:12;;;;;;;6.03;2.78;;;33.40;44.40;;;39.29;25.04;101591.56;5107025;28;20196;-67
2023/08/24 08:44:43;;;;;;;4.32;2.42;;;33.60;44.00;;;39.69;24.86;101595.16;5098784;28;20245;-68
2023/08/24 08:47:11;;;;;;;3.42;2.30;;;33.80;43.80;;;39.92;23.73;101590.69;5092485;28;20218;-68
2023/08/24 08:49:39;;;;;;;3.85;2.55;;;34.00;42.50;;;40.03;23.09;101601.25;5101766;28;20235;-68
2023/08/24 08:52:08;;;;;;;3.20;2.38;;;34.10;41.80;;;40.03;23.87;101596.56;5102432;28;20220;-68
2023/08/24 08:54:35;;;;;;;3.30;2.40;;;34.20;41.70;;;39.97;23.57;101599.88;5099947;28;20210;-66
2023/08/24 08:57:03;;;;;;;4.95;2.17;;;34.30;41.90;;;39.82;23.66;101593.94;5110870;27;20192;-67
2023/08/24 08:59:31;;;;;;;4.63;2.55;;;34.20;40.80;;;39.29;24.15;101588.00;5112075;28;20290;-67
2023/08/24 09:02:01;;;;;;;2.70;2.50;;;34.20;41.00;;;39.09;23.96;101586.97;5112642;28;20291;-65
2023/08/24 09:04:31;;;;;;;3.90;2.47;;;34.00;40.90;;;38.93;23.95;101583.31;5115395;28;20271;-69
2023/08/24 09:07:03;;;;;;;2.83;2.53;;;33.80;41.40;;;39.05;24.52;101583.31;5101456;28;20196;-66
2023/08/24 09:09:33;;;;;;;4.63;2.95;;;33.70;42.10;;;39.35;24.35;101584.66;5110197;28;20311;-67
2023/08/24 09:12:01;;;;;;;2.35;1.92;;;33.70;42.60;;;39.81;24.39;101586.03;5105409;27;20220;-67
2023/08/24 09:14:28;;;;;;;5.18;2.95;;;34.00;42.70;;;40.16;23.16;101588.97;5098961;28;20199;-68
2023/08/24 09:16:55;;;;;;;3.90;2.85;;;34.10;42.00;;;40.41;23.78;101582.16;5115252;27;20531;-68
2023/08/24 09:19:29;;;;;;;4.90;2.95;;;34.30;42.20;;;40.63;23.44;101570.50;5108858;27;20188;-68
2023/08/24 09:21:58;;;;;;;4.53;2.80;;;34.50;41.60;;;40.69;22.88;101560.81;5115695;28;20191;-68
2023/08/24 09:24:34;;;;;;;3.00;2.70;;;34.60;41.20;;;40.79;23.85;101543.69;5098580;28;20203;-66
2023/08/24 09:27:16;;;;;;;2.92;2.55;;;34.90;41.60;;;41.15;22.67;101543.34;5111930;28;20183;-66
2023/08/24 09:29:48;;;;;;;4.05;2.42;;;35.10;41.20;;;41.58;22.47;101547.03;5119871;27;20267;-67
2023/08/24 09:35:36;;;;;;;3.15;2.78;;;35.70;40.40;;;42.95;21.84;101548.72;5566515;22;20253;-69
2023/08/24 09:38:18;;;;;;;3.80;3.10;;;36.20;40.10;;;43.20;20.61;101538.75;5033553;28;20202;-67
2023/08/24 09:40:50;;;;;;;6.28;3.30;;;36.40;38.60;;;43.21;20.63;101543.16;5034197;28;20330;-68
2023/08/24 09:43:18;;;;;;;3.03;2.35;;;36.60;38.00;;;43.09;20.90;101538.63;5035089;28;20261;-68
2023/08/24 09:45:50;;;;;;;5.43;3.00;;;36.70;38.10;;;42.94;20.69;101528.50;5034524;28;20220;-70
2023/08/24 09:48:18;;;;;;;6.30;3.25;;;36.70;36.80;;;42.26;21.14;101517.53;5033500;28;20556;-68
2023/08/24 09:50:46;;;;;;;6.43;3.38;;;36.50;36.60;;;41.82;21.94;101516.28;5033149;28;20258;-68
2023/08/24 09:53:18;;;;;;;7.65;6.85;;;36.40;37.20;;;41.62;21.57;101498.09;5034850;28;20294;-67
2023/08/24 09:55:54;;;;;;;6.18;4.15;;;36.40;37.70;;;41.51;22.60;101492.34;5034497;28;20265;-68
2023/08/24 09:58:23;;;;;;;6.13;3.40;;;36.30;37.70;;;41.31;21.92;101495.50;5032708;28;20290;-67
2023/08/24 10:00:51;;;;;;;4.00;3.08;;;36.10;37.50;;;41.10;22.59;101493.84;5016777;28;20313;-67
2023/08/24 10:03:20;;;;;;;5.82;5.25;;;35.90;37.90;;;41.16;22.23;101492.41;5033123;28;20221;-68
2023/08/24 10:05:53;;;;;;;5.30;3.75;;;35.90;38.30;;;41.17;22.02;101496.00;5033085;28;20297;-68
2023/08/24 10:08:34;;;;;;;4.00;2.72;;;35.70;37.90;;;41.11;22.55;101489.13;5034484;28;20206;-67
2023/08/24 10:11:05;;;;;;;5.13;3.13;;;35.70;38.30;;;41.13;22.64;101498.66;5032966;28;20496;-68
2023/08/24 10:13:49;;;;;;;4.57;3.97;;;35.70;38.50;;;40.87;22.41;101490.19;5034291;28;20591;-68
2023/08/24 10:16:18;;;;;;;4.13;2.80;;;35.60;38.10;;;40.38;23.18;101484.28;5033547;28;20288;-70
2023/08/24 10:18:47;;;;;;;7.00;2.90;;;35.70;38.30;;;39.92;23.16;101469.28;5033720;28;20289;-67
2023/08/24 10:21:16;;;;;;;4.45;3.33;;;35.60;38.00;;;39.80;23.95;101468.53;5033925;28;20233;-67